Time;durP1;ratioP1;P1;durP2;ratioP2;P2;SDS_P1;SDS_P2;PMS_P1;PMS_P2;Temp;Humidity;BMP_temperature;BMP_pressure;BME280_temperature;BME280_humidity;BME280_pressure;Samples;Min_cycle;Max_cycle;Signal;HPM_P1;HPM_P2
2023/10/26 06:48:26;;;;;;;;;3.67;2.33;;;;;;;;6318143;22;45375;-74
2023/10/26 06:50:56;;;;;;;;;3.00;2.00;;;;;;;;6337632;22;45264;-74
2023/10/26 06:53:22;;;;;;;;;2.00;1.00;;;;;;;;6337754;22;45345;-74
2023/10/26 06:55:47;;;;;;;;;3.00;2.00;;;;;;;;6339669;22;45443;-74
2023/10/26 06:58:12;;;;;;;;;4.00;2.00;;;;;;;;6337504;22;45448;-74
2023/10/26 07:00:37;;;;;;;;;7.00;3.00;;;;;;;;6339511;22;45618;-74
2023/10/26 07:03:03;;;;;;;;;2.00;1.67;;;;;;;;6338038;22;45297;-75
2023/10/26 07:05:28;;;;;;;;;4.00;2.00;;;;;;;;6339562;22;45601;-75
2023/10/26 07:07:53;;;;;;;;;3.33;2.67;;;;;;;;6337810;22;45321;-76
2023/10/26 07:10:19;;;;;;;;;2.00;2.00;;;;;;;;6338146;22;45390;-75
2023/10/26 07:12:45;;;;;;;;;2.33;1.00;;;;;;;;6338543;22;45180;-75
2023/10/26 07:15:11;;;;;;;;;4.00;3.00;;;;;;;;6310434;22;44685;-74
2023/10/26 07:17:36;;;;;;;;;3.00;3.00;;;;;;;;6339168;22;45180;-75
2023/10/26 07:20:02;;;;;;;;;4.00;3.00;;;;;;;;6339888;22;45719;-75
2023/10/26 07:22:27;;;;;;;;;5.00;3.00;;;;;;;;6339996;22;44640;-74
2023/10/26 07:24:53;;;;;;;;;3.00;2.00;;;;;;;;6339843;22;45105;-74
2023/10/26 07:27:18;;;;;;;;;4.00;3.00;;;;;;;;6338147;22;45366;-75
2023/10/26 07:29:44;;;;;;;;;9.33;2.67;;;;;;;;6338421;22;45473;-75
2023/10/26 07:32:09;;;;;;;;;5.00;4.00;;;;;;;;6337498;22;45545;-75
2023/10/26 07:34:34;;;;;;;;;7.00;2.67;;;;;;;;6337693;22;45487;-75
2023/10/26 07:36:59;;;;;;;;;2.00;1.00;;;;;;;;6336825;22;45236;-75
2023/10/26 07:39:25;;;;;;;;;5.33;3.00;;;;;;;;6337801;22;46324;-74
2023/10/26 07:41:50;;;;;;;;;4.67;3.67;;;;;;;;6337275;22;45256;-75
2023/10/26 07:44:15;;;;;;;;;6.00;3.00;;;;;;;;6337958;22;45374;-74
2023/10/26 07:46:40;;;;;;;;;2.33;2.33;;;;;;;;6338199;22;45155;-73
2023/10/26 07:49:05;;;;;;;;;6.00;4.00;;;;;;;;6338065;22;45239;-74
2023/10/26 07:51:31;;;;;;;;;3.67;3.67;;;;;;;;6337616;22;45359;-74
2023/10/26 07:53:56;;;;;;;;;7.00;4.00;;;;;;;;6337758;22;45486;-74
2023/10/26 07:56:21;;;;;;;;;2.33;2.33;;;;;;;;6338932;22;45491;-74
2023/10/26 07:58:46;;;;;;;;;4.67;2.00;;;;;;;;6308528;22;47762;-73
2023/10/26 08:01:12;;;;;;;;;4.33;4.33;;;;;;;;6309802;22;45257;-74
2023/10/26 08:03:38;;;;;;;;;3.33;2.00;;;;;;;;6337624;22;45468;-74
2023/10/26 08:06:04;;;;;;;;;3.00;3.00;;;;;;;;6337680;22;45333;-73
2023/10/26 08:08:29;;;;;;;;;5.00;2.00;;;;;;;;6339552;22;46022;-74
2023/10/26 08:11:08;;;;;;;;;6.67;3.00;;;;;;;;6340014;22;45227;-73
2023/10/26 08:13:33;;;;;;;;;8.00;2.33;;;;;;;;6339398;22;45400;-75
2023/10/26 08:16:00;;;;;;;;;5.00;4.00;;;;;;;;6338536;22;45253;-75
2023/10/26 08:18:26;;;;;;;;;3.00;3.00;;;;;;;;6309769;22;47865;-77
2023/10/26 08:20:51;;;;;;;;;5.67;3.00;;;;;;;;6338506;22;45244;-75
2023/10/26 08:23:16;;;;;;;;;9.00;3.00;;;;;;;;6340102;22;45253;-76
2023/10/26 08:25:42;;;;;;;;;5.00;4.00;;;;;;;;6339222;22;45369;-75
2023/10/26 08:28:07;;;;;;;;;6.33;2.00;;;;;;;;6339356;22;45349;-76
2023/10/26 08:30:32;;;;;;;;;2.00;1.33;;;;;;;;6311866;22;45242;-75
2023/10/26 08:32:59;;;;;;;;;6.00;4.00;;;;;;;;6339490;22;45364;-75
2023/10/26 08:35:24;;;;;;;;;4.00;2.67;;;;;;;;6339227;22;45532;-77
2023/10/26 08:37:50;;;;;;;;;5.00;2.00;;;;;;;;6339095;22;45243;-77
2023/10/26 08:40:15;;;;;;;;;3.00;1.00;;;;;;;;6340267;22;45262;-76
2023/10/26 08:42:42;;;;;;;;;6.33;2.00;;;;;;;;6340005;22;45363;-77
2023/10/26 08:45:10;;;;;;;;;4.33;4.33;;;;;;;;6339340;22;45175;-75
2023/10/26 08:47:36;;;;;;;;;3.67;2.00;;;;;;;;6338350;22;45215;-75
2023/10/26 08:50:02;;;;;;;;;6.33;3.00;;;;;;;;6338341;22;45321;-77
2023/10/26 08:52:27;;;;;;;;;6.00;3.00;;;;;;;;6310822;22;45309;-77
2023/10/26 08:54:52;;;;;;;;;6.00;3.00;;;;;;;;6311300;22;46145;-78
2023/10/26 08:57:18;;;;;;;;;5.00;3.33;;;;;;;;6338917;22;46266;-77
2023/10/26 08:59:43;;;;;;;;;2.00;2.00;;;;;;;;6310716;22;44631;-77
2023/10/26 09:02:08;;;;;;;;;7.33;3.67;;;;;;;;6338444;22;45277;-77
2023/10/26 09:04:33;;;;;;;;;7.33;3.33;;;;;;;;6340040;22;45295;-77
2023/10/26 09:06:59;;;;;;;;;3.00;2.00;;;;;;;;6339360;22;45362;-77
2023/10/26 09:09:24;;;;;;;;;5.00;3.00;;;;;;;;6309197;22;45345;-77
2023/10/26 09:11:49;;;;;;;;;6.00;2.00;;;;;;;;6309707;22;45491;-77
2023/10/26 09:14:18;;;;;;;;;3.33;2.00;;;;;;;;6310109;22;45686;-77
2023/10/26 09:16:45;;;;;;;;;4.00;3.00;;;;;;;;6337261;22;45222;-76
2023/10/26 09:19:11;;;;;;;;;2.00;2.00;;;;;;;;6310307;22;45234;-78
2023/10/26 09:21:50;;;;;;;;;8.00;3.00;;;;;;;;6338449;22;45366;-77
2023/10/26 09:24:24;;;;;;;;;3.00;3.00;;;;;;;;6338077;22;45340;-77
2023/10/26 09:26:49;;;;;;;;;5.00;3.67;;;;;;;;6337557;22;45286;-78
2023/10/26 09:29:15;;;;;;;;;3.67;3.00;;;;;;;;6338250;22;45242;-77
2023/10/26 09:31:55;;;;;;;;;7.00;2.00;;;;;;;;6338709;22;45207;-78
2023/10/26 09:34:24;;;;;;;;;4.33;3.00;;;;;;;;6339006;22;45420;-77
2023/10/26 09:37:17;;;;;;;;;6.67;2.33;;;;;;;;6340303;22;45942;-78
2023/10/26 09:39:42;;;;;;;;;5.00;2.33;;;;;;;;6333386;22;44701;-78
2023/10/26 09:42:09;;;;;;;;;8.00;3.00;;;;;;;;6340162;22;45404;-77
2023/10/26 09:44:36;;;;;;;;;6.33;3.00;;;;;;;;6338791;22;45313;-77
2023/10/26 09:47:01;;;;;;;;;3.33;2.00;;;;;;;;6311675;22;46035;-77
2023/10/26 09:49:26;;;;;;;;;4.00;3.00;;;;;;;;6312090;22;46071;-78
2023/10/26 09:51:52;;;;;;;;;5.00;3.67;;;;;;;;6340998;22;45212;-74
2023/10/26 09:54:22;;;;;;;;;4.00;2.33;;;;;;;;6341168;22;45321;-74
2023/10/26 09:56:49;;;;;;;;;2.00;2.00;;;;;;;;6339755;22;46151;-74
2023/10/26 09:59:15;;;;;;;;;6.00;4.00;;;;;;;;6340068;22;45261;-75
2023/10/26 10:01:40;;;;;;;;;6.33;4.00;;;;;;;;6340291;22;45262;-73
2023/10/26 10:04:06;;;;;;;;;4.00;3.00;;;;;;;;6340929;22;45185;-73
2023/10/26 10:06:48;;;;;;;;;2.67;1.33;;;;;;;;6312430;22;45433;-73
2023/10/26 10:09:13;;;;;;;;;8.00;3.67;;;;;;;;6340815;22;45334;-73
2023/10/26 10:11:39;;;;;;;;;5.00;2.00;;;;;;;;6340223;22;45246;-73
2023/10/26 10:14:04;;;;;;;;;5.67;3.67;;;;;;;;6312468;22;45954;-74
2023/10/26 10:16:35;;;;;;;;;3.33;1.67;;;;;;;;6340087;22;45284;-74
2023/10/26 10:19:19;;;;;;;;;4.00;3.00;;;;;;;;6340935;22;45211;-74
2023/10/26 10:21:44;;;;;;;;;5.67;3.33;;;;;;;;6311962;22;45262;-77
2023/10/26 10:24:09;;;;;;;;;4.00;2.67;;;;;;;;6340094;22;45405;-77
2023/10/26 10:27:01;;;;;;;;;3.67;3.67;;;;;;;;6339951;22;46755;-76
2023/10/26 10:29:26;;;;;;;;;7.67;3.67;;;;;;;;6278601;22;45450;-76
2023/10/26 10:31:51;;;;;;;;;3.00;1.67;;;;;;;;6311096;22;45215;-77
2023/10/26 10:34:19;;;;;;;;;8.00;3.00;;;;;;;;6340912;22;45251;-77
2023/10/26 10:37:13;;;;;;;;;6.50;2.00;;;;;;;;6340302;22;46583;-77
2023/10/26 10:39:58;;;;;;;;;4.33;3.00;;;;;;;;6305285;22;45519;-77
2023/10/26 10:42:24;;;;;;;;;6.00;2.00;;;;;;;;6311858;22;45363;-78
2023/10/26 10:44:49;;;;;;;;;2.33;2.00;;;;;;;;6340298;22;45306;-76
2023/10/26 10:47:15;;;;;;;;;2.00;2.00;;;;;;;;6339837;22;45520;-75
2023/10/26 10:49:40;;;;;;;;;2.33;2.33;;;;;;;;6340387;22;45143;-77
2023/10/26 10:52:11;;;;;;;;;6.67;2.00;;;;;;;;6311699;22;45537;-77
2023/10/26 10:54:37;;;;;;;;;3.33;3.33;;;;;;;;6312071;22;46502;-76
2023/10/26 10:57:04;;;;;;;;;3.00;2.00;;;;;;;;6339749;22;46233;-77
2023/10/26 10:59:32;;;;;;;;;3.67;2.67;;;;;;;;6339351;22;45298;-77
2023/10/26 11:02:10;;;;;;;;;4.67;1.67;;;;;;;;6339100;22;45365;-75
2023/10/26 11:04:50;;;;;;;;;3.00;3.00;;;;;;;;6339868;22;45282;-74
2023/10/26 11:07:16;;;;;;;;;2.67;1.33;;;;;;;;6340387;22;45607;-78
2023/10/26 11:09:41;;;;;;;;;3.33;2.33;;;;;;;;6339957;22;45138;-75
2023/10/26 11:12:10;;;;;;;;;2.00;2.00;;;;;;;;6340532;22;45591;-76
2023/10/26 11:14:35;;;;;;;;;3.00;2.00;;;;;;;;6340802;22;45634;-75
2023/10/26 11:17:01;;;;;;;;;2.33;0.33;;;;;;;;6339959;22;45343;-75
2023/10/26 11:19:26;;;;;;;;;4.67;2.00;;;;;;;;6339878;22;45179;-74
2023/10/26 11:21:55;;;;;;;;;5.33;2.67;;;;;;;;6340373;22;45258;-75
2023/10/26 11:24:28;;;;;;;;;5.00;2.00;;;;;;;;6340196;22;45596;-76
2023/10/26 11:27:06;;;;;;;;;2.00;2.00;;;;;;;;6339886;22;45320;-78
2023/10/26 11:29:31;;;;;;;;;4.33;3.00;;;;;;;;6340443;22;45182;-78
2023/10/26 11:31:56;;;;;;;;;3.67;2.00;;;;;;;;6339800;22;45520;-77
2023/10/26 11:34:24;;;;;;;;;5.00;2.33;;;;;;;;6311900;22;45397;-78
2023/10/26 11:36:50;;;;;;;;;3.67;3.00;;;;;;;;6340010;22;46163;-76
2023/10/26 11:39:15;;;;;;;;;4.00;3.00;;;;;;;;6339443;22;45286;-75
2023/10/26 11:41:40;;;;;;;;;3.67;3.00;;;;;;;;6340629;22;45244;-76
2023/10/26 11:44:22;;;;;;;;;2.33;0.00;;;;;;;;6340422;22;45322;-75
2023/10/26 11:46:55;;;;;;;;;3.33;3.00;;;;;;;;6339946;22;46434;-77
2023/10/26 11:49:20;;;;;;;;;4.67;2.33;;;;;;;;6340087;22;45236;-76
2023/10/26 11:51:46;;;;;;;;;5.33;3.67;;;;;;;;6340182;22;45243;-76
2023/10/26 11:54:12;;;;;;;;;3.67;1.67;;;;;;;;6340065;22;45446;-76
2023/10/26 11:56:37;;;;;;;;;2.33;2.33;;;;;;;;6311668;22;47088;-78
2023/10/26 11:59:02;;;;;;;;;3.00;2.00;;;;;;;;6311865;22;45291;-79
2023/10/26 12:01:27;;;;;;;;;2.00;2.00;;;;;;;;6340266;22;45215;-78
2023/10/26 12:03:52;;;;;;;;;9.33;4.00;;;;;;;;6340069;22;45331;-78
2023/10/26 12:06:18;;;;;;;;;2.00;2.00;;;;;;;;6310895;22;47008;-79
2023/10/26 12:08:43;;;;;;;;;4.67;3.67;;;;;;;;6340217;22;45201;-78
2023/10/26 12:11:09;;;;;;;;;6.67;4.67;;;;;;;;6340653;22;45280;-78
2023/10/26 12:13:35;;;;;;;;;8.00;5.33;;;;;;;;6340395;22;45232;-78
2023/10/26 12:16:00;;;;;;;;;5.00;3.67;;;;;;;;6339958;22;45340;-78
2023/10/26 12:18:26;;;;;;;;;18.33;13.67;;;;;;;;6339939;22;45235;-81
2023/10/26 12:20:52;;;;;;;;;12.33;9.33;;;;;;;;6340513;22;45101;-81
2023/10/26 12:23:17;;;;;;;;;4.00;2.67;;;;;;;;6311706;22;46435;-80
2023/10/26 12:25:42;;;;;;;;;2.67;2.00;;;;;;;;6340637;22;45273;-81
2023/10/26 12:28:07;;;;;;;;;5.00;1.00;;;;;;;;6339781;22;45296;-81
2023/10/26 12:30:32;;;;;;;;;12.33;9.67;;;;;;;;6340400;22;45150;-80
2023/10/26 12:32:58;;;;;;;;;8.00;6.00;;;;;;;;6339571;22;45322;-79
2023/10/26 12:35:23;;;;;;;;;6.33;4.33;;;;;;;;6340238;22;45371;-80
2023/10/26 12:37:48;;;;;;;;;7.00;6.33;;;;;;;;6340863;22;45179;-80
2023/10/26 12:40:13;;;;;;;;;16.00;11.00;;;;;;;;6340460;22;45216;-82
2023/10/26 12:42:39;;;;;;;;;6.33;3.33;;;;;;;;6338100;22;45150;-79
2023/10/26 12:45:04;;;;;;;;;10.33;8.33;;;;;;;;6337775;22;46293;-79
2023/10/26 12:47:30;;;;;;;;;6.00;4.67;;;;;;;;6335664;22;45801;-81
2023/10/26 12:49:55;;;;;;;;;5.33;5.33;;;;;;;;6339820;22;45179;-77
2023/10/26 12:52:20;;;;;;;;;7.67;4.67;;;;;;;;6338115;22;45375;-80
2023/10/26 12:54:45;;;;;;;;;16.00;10.00;;;;;;;;6340293;22;46394;-80
2023/10/26 12:57:10;;;;;;;;;9.67;6.67;;;;;;;;6310266;22;45239;-79
2023/10/26 12:59:35;;;;;;;;;6.67;5.33;;;;;;;;6340736;22;45227;-78
2023/10/26 13:02:01;;;;;;;;;6.33;3.00;;;;;;;;6339331;22;45202;-81
2023/10/26 13:04:26;;;;;;;;;7.33;2.67;;;;;;;;6335910;22;45481;-79
2023/10/26 13:06:52;;;;;;;;;3.00;2.33;;;;;;;;6338418;22;45240;-78
2023/10/26 13:09:17;;;;;;;;;2.33;2.33;;;;;;;;6311161;22;45350;-77
2023/10/26 13:11:42;;;;;;;;;4.00;3.33;;;;;;;;6339345;22;45270;-77
2023/10/26 13:14:08;;;;;;;;;7.67;4.67;;;;;;;;6339617;22;45815;-80
2023/10/26 13:16:33;;;;;;;;;5.33;4.67;;;;;;;;6339090;22;45282;-80
2023/10/26 13:18:58;;;;;;;;;4.33;3.33;;;;;;;;6340082;22;45260;-79
2023/10/26 13:21:23;;;;;;;;;6.33;2.33;;;;;;;;6338872;22;45278;-81
2023/10/26 13:23:48;;;;;;;;;6.00;3.33;;;;;;;;6339550;22;46434;-79
2023/10/26 13:26:13;;;;;;;;;10.67;7.33;;;;;;;;6310795;22;45219;-77
2023/10/26 13:28:39;;;;;;;;;8.00;3.00;;;;;;;;6310775;22;45361;-78
2023/10/26 13:31:06;;;;;;;;;11.00;4.67;;;;;;;;6339365;22;45257;-79
2023/10/26 13:33:32;;;;;;;;;4.00;4.00;;;;;;;;6338801;22;46619;-77
2023/10/26 13:35:57;;;;;;;;;7.67;4.00;;;;;;;;6339450;22;45265;-78
2023/10/26 13:38:22;;;;;;;;;7.33;2.67;;;;;;;;6338613;22;45415;-78
2023/10/26 13:40:48;;;;;;;;;3.67;2.00;;;;;;;;6339367;22;45199;-77
2023/10/26 13:43:16;;;;;;;;;5.33;2.67;;;;;;;;6339460;22;45343;-77
2023/10/26 13:45:41;;;;;;;;;6.67;3.67;;;;;;;;6338926;22;45284;-77
2023/10/26 13:48:07;;;;;;;;;4.00;4.00;;;;;;;;6338539;22;45157;-77
2023/10/26 13:50:32;;;;;;;;;4.00;4.00;;;;;;;;6338476;22;45518;-76
2023/10/26 13:52:58;;;;;;;;;42.33;32.00;;;;;;;;6310099;22;46882;-78
2023/10/26 13:55:24;;;;;;;;;6.67;0.33;;;;;;;;6338629;22;45294;-76
2023/10/26 13:57:49;;;;;;;;;5.00;1.67;;;;;;;;6338856;22;45274;-76
2023/10/26 14:00:14;;;;;;;;;5.67;1.00;;;;;;;;6339203;22;45494;-77
2023/10/26 14:02:40;;;;;;;;;5.67;2.00;;;;;;;;6337711;22;45556;-76
2023/10/26 14:05:08;;;;;;;;;4.00;2.00;;;;;;;;6338778;22;45380;-78
2023/10/26 14:07:34;;;;;;;;;4.33;2.67;;;;;;;;6339335;22;45168;-78
2023/10/26 14:09:59;;;;;;;;;7.00;3.00;;;;;;;;6338201;22;45159;-76
2023/10/26 14:12:24;;;;;;;;;4.67;3.00;;;;;;;;6338711;22;46268;-77
2023/10/26 14:14:49;;;;;;;;;3.00;3.00;;;;;;;;6338725;22;45348;-79
2023/10/26 14:17:14;;;;;;;;;7.00;3.33;;;;;;;;6309982;22;45549;-77
2023/10/26 14:19:40;;;;;;;;;4.67;3.67;;;;;;;;6340051;22;45400;-78
2023/10/26 14:22:05;;;;;;;;;4.00;2.00;;;;;;;;6339814;22;45337;-78
2023/10/26 14:24:30;;;;;;;;;4.67;2.33;;;;;;;;6340665;22;45208;-79
2023/10/26 14:26:55;;;;;;;;;2.00;2.00;;;;;;;;6340237;22;45231;-78
2023/10/26 14:29:20;;;;;;;;;9.33;2.33;;;;;;;;6340703;22;45286;-80
2023/10/26 14:31:45;;;;;;;;;6.33;1.67;;;;;;;;6311787;22;46883;-80
2023/10/26 14:34:11;;;;;;;;;6.67;3.00;;;;;;;;6340462;22;45159;-79
2023/10/26 14:36:36;;;;;;;;;3.67;2.67;;;;;;;;6340888;22;45406;-79
2023/10/26 14:39:01;;;;;;;;;4.67;4.67;;;;;;;;6340445;22;44692;-79
2023/10/26 14:41:26;;;;;;;;;5.67;3.00;;;;;;;;6339144;22;45277;-79
2023/10/26 14:43:53;;;;;;;;;4.67;2.33;;;;;;;;6339897;22;45101;-79
2023/10/26 14:46:18;;;;;;;;;4.67;2.67;;;;;;;;6340211;22;45336;-78
2023/10/26 14:48:44;;;;;;;;;4.33;3.33;;;;;;;;6339495;22;45549;-82
2023/10/26 14:51:09;;;;;;;;;4.00;2.67;;;;;;;;6339540;22;45550;-80
2023/10/26 14:53:34;;;;;;;;;2.67;2.33;;;;;;;;6311710;22;45247;-79
2023/10/26 14:56:01;;;;;;;;;4.67;1.67;;;;;;;;6340669;22;45168;-79
2023/10/26 14:58:26;;;;;;;;;4.33;1.00;;;;;;;;6339625;22;45441;-77
2023/10/26 15:00:51;;;;;;;;;4.33;1.00;;;;;;;;6340500;22;45245;-79
2023/10/26 15:03:16;;;;;;;;;6.00;3.00;;;;;;;;6339323;22;44712;-79
2023/10/26 15:05:42;;;;;;;;;15.33;12.67;;;;;;;;6341112;22;45267;-84
2023/10/26 15:08:07;;;;;;;;;6.67;3.00;;;;;;;;6340491;22;45253;-83
2023/10/26 15:10:34;;;;;;;;;6.00;4.67;;;;;;;;6311652;22;47801;-79
2023/10/26 15:13:00;;;;;;;;;20.33;13.67;;;;;;;;6340084;22;45217;-77
2023/10/26 15:15:25;;;;;;;;;6.00;2.67;;;;;;;;6339795;22;45249;-79
2023/10/26 15:17:51;;;;;;;;;4.00;1.33;;;;;;;;6337605;22;45569;-80
2023/10/26 15:20:16;;;;;;;;;4.67;3.00;;;;;;;;6339804;22;45243;-81
2023/10/26 15:22:41;;;;;;;;;7.33;4.67;;;;;;;;6339158;22;45202;-75
2023/10/26 15:25:06;;;;;;;;;4.00;4.00;;;;;;;;6340901;22;45226;-77
2023/10/26 15:27:32;;;;;;;;;8.33;6.33;;;;;;;;6339367;22;45459;-74
2023/10/26 15:29:57;;;;;;;;;4.33;3.00;;;;;;;;6340035;22;45286;-77
2023/10/26 15:32:22;;;;;;;;;5.00;3.67;;;;;;;;6339912;22;45233;-77
2023/10/26 15:34:47;;;;;;;;;4.67;3.00;;;;;;;;6340903;22;44707;-80
2023/10/26 15:37:13;;;;;;;;;4.00;2.00;;;;;;;;6339930;22;45435;-77
2023/10/26 15:39:42;;;;;;;;;6.00;3.00;;;;;;;;6339847;22;45635;-76
2023/10/26 15:42:08;;;;;;;;;3.00;3.00;;;;;;;;6340031;22;45341;-76
2023/10/26 15:44:33;;;;;;;;;6.00;3.00;;;;;;;;6339590;22;45278;-86
2023/10/26 15:46:58;;;;;;;;;6.67;4.00;;;;;;;;6338440;22;45586;-79
2023/10/26 15:49:24;;;;;;;;;4.00;2.00;;;;;;;;6311531;22;48189;-80
2023/10/26 15:51:50;;;;;;;;;39.50;31.50;;;;;;;;6339163;22;45174;-84
2023/10/26 15:54:15;;;;;;;;;25.00;19.67;;;;;;;;6340433;22;44567;-83
2023/10/26 15:56:40;;;;;;;;;3.67;3.67;;;;;;;;6338813;22;45401;-84
2023/10/26 15:59:05;;;;;;;;;9.00;4.33;;;;;;;;6306864;22;47848;-81
2023/10/26 16:01:31;;;;;;;;;5.00;3.00;;;;;;;;6339767;22;45243;-82
2023/10/26 16:03:56;;;;;;;;;7.33;6.33;;;;;;;;6339915;22;45187;-83
2023/10/26 16:06:21;;;;;;;;;10.67;4.67;;;;;;;;6311091;22;46741;-82
2023/10/26 16:08:47;;;;;;;;;8.67;5.00;;;;;;;;6340264;22;45520;-84
2023/10/26 16:11:13;;;;;;;;;10.00;6.33;;;;;;;;6339520;22;45103;-85
2023/10/26 16:13:38;;;;;;;;;12.00;6.33;;;;;;;;6340150;22;45291;-83
2023/10/26 16:16:04;;;;;;;;;9.33;6.67;;;;;;;;6339707;22;45424;-83
2023/10/26 16:18:29;;;;;;;;;10.00;6.67;;;;;;;;6311460;22;47147;-84
2023/10/26 16:20:54;;;;;;;;;8.00;5.67;;;;;;;;6311760;22;45923;-81
2023/10/26 16:23:19;;;;;;;;;68.50;50.25;;;;;;;;6339617;22;45234;-82
2023/10/26 16:25:45;;;;;;;;;28.67;24.00;;;;;;;;6339863;22;45258;-84
2023/10/26 16:28:13;;;;;;;;;47.25;40.25;;;;;;;;6310143;22;46766;-83
2023/10/26 16:30:41;;;;;;;;;75.50;62.25;;;;;;;;6340300;22;45218;-85
2023/10/26 16:33:08;;;;;;;;;29.67;29.00;;;;;;;;6338581;22;45344;-82
2023/10/26 16:35:33;;;;;;;;;11.67;8.67;;;;;;;;6339332;22;45223;-81
2023/10/26 16:37:59;;;;;;;;;20.33;15.33;;;;;;;;6339915;22;45868;-82
2023/10/26 16:40:25;;;;;;;;;11.67;9.00;;;;;;;;6340626;22;45379;-83
2023/10/26 16:42:50;;;;;;;;;14.33;11.33;;;;;;;;6339935;22;45239;-82
2023/10/26 16:45:15;;;;;;;;;10.33;7.00;;;;;;;;6339949;22;45469;-82
2023/10/26 16:47:41;;;;;;;;;13.67;11.00;;;;;;;;6336668;22;45393;-84
2023/10/26 16:50:06;;;;;;;;;16.67;9.00;;;;;;;;6340345;22;45293;-83
2023/10/26 16:52:31;;;;;;;;;22.00;19.33;;;;;;;;6339468;22;45297;-82
2023/10/26 16:54:57;;;;;;;;;18.33;15.67;;;;;;;;6312661;22;45886;-82
2023/10/26 16:57:22;;;;;;;;;26.00;24.33;;;;;;;;6339658;22;46593;-84
2023/10/26 16:59:47;;;;;;;;;14.67;10.67;;;;;;;;6339727;22;45235;-82
2023/10/26 17:02:12;;;;;;;;;13.33;10.33;;;;;;;;6310371;22;45232;-83
2023/10/26 17:04:39;;;;;;;;;18.00;15.00;;;;;;;;6339211;22;45294;-83
2023/10/26 17:07:04;;;;;;;;;17.33;16.33;;;;;;;;6339089;22;46152;-83
2023/10/26 17:09:30;;;;;;;;;15.33;11.00;;;;;;;;6339422;22;45139;-82
2023/10/26 17:11:55;;;;;;;;;9.67;6.00;;;;;;;;6338808;22;45275;-83
2023/10/26 17:14:20;;;;;;;;;9.67;8.00;;;;;;;;6339046;22;45263;-82
2023/10/26 17:16:45;;;;;;;;;12.00;9.33;;;;;;;;6338996;22;46412;-83
2023/10/26 17:19:10;;;;;;;;;11.00;9.33;;;;;;;;6339525;22;45341;-86
2023/10/26 17:21:36;;;;;;;;;13.33;10.33;;;;;;;;6339153;22;45192;-79
2023/10/26 17:24:01;;;;;;;;;32.00;26.67;;;;;;;;6339319;22;45565;-79
2023/10/26 17:26:26;;;;;;;;;19.67;14.33;;;;;;;;6339318;22;45439;-79
2023/10/26 17:28:51;;;;;;;;;19.67;14.00;;;;;;;;6339442;22;45148;-80
2023/10/26 17:31:17;;;;;;;;;19.33;14.00;;;;;;;;6338985;22;45210;-79
2023/10/26 17:33:42;;;;;;;;;17.67;12.67;;;;;;;;6339358;22;45240;-77
2023/10/26 17:36:07;;;;;;;;;17.00;12.33;;;;;;;;6339076;22;46210;-76
2023/10/26 17:38:32;;;;;;;;;29.33;25.00;;;;;;;;6310186;22;45177;-76
2023/10/26 17:41:10;;;;;;;;;10.67;7.00;;;;;;;;6339628;22;45342;-76
2023/10/26 17:43:35;;;;;;;;;10.00;10.00;;;;;;;;6338799;22;45408;-77
2023/10/26 17:46:01;;;;;;;;;17.33;10.00;;;;;;;;6339010;22;45242;-76
2023/10/26 17:48:26;;;;;;;;;15.00;13.33;;;;;;;;6338000;22;45248;-75
2023/10/26 17:50:51;;;;;;;;;13.67;11.67;;;;;;;;6310433;22;45340;-75
2023/10/26 17:53:16;;;;;;;;;16.67;12.00;;;;;;;;6339293;22;45479;-76
2023/10/26 17:55:43;;;;;;;;;14.33;9.00;;;;;;;;6340470;22;46078;-76
2023/10/26 17:58:08;;;;;;;;;12.67;9.33;;;;;;;;6340508;22;45180;-76
2023/10/26 18:00:33;;;;;;;;;9.00;8.33;;;;;;;;6340464;22;45246;-76
2023/10/26 18:02:59;;;;;;;;;12.67;11.00;;;;;;;;6339812;22;45123;-76
2023/10/26 18:05:24;;;;;;;;;17.00;12.00;;;;;;;;6311461;22;46886;-77
2023/10/26 18:07:49;;;;;;;;;15.33;11.67;;;;;;;;6310980;22;45198;-79
2023/10/26 18:10:14;;;;;;;;;15.33;9.00;;;;;;;;6341194;22;45081;-79
2023/10/26 18:12:39;;;;;;;;;18.33;14.33;;;;;;;;6311735;22;47239;-77
2023/10/26 18:15:05;;;;;;;;;18.33;14.33;;;;;;;;6340651;22;46213;-77
2023/10/26 18:17:30;;;;;;;;;15.67;10.33;;;;;;;;6339158;22;45545;-78
2023/10/26 18:19:55;;;;;;;;;11.00;9.33;;;;;;;;6340943;22;45177;-79
2023/10/26 18:22:21;;;;;;;;;12.67;9.67;;;;;;;;6340567;22;45631;-78
2023/10/26 18:24:47;;;;;;;;;15.00;11.00;;;;;;;;6311728;22;46160;-77
2023/10/26 18:27:13;;;;;;;;;16.33;10.00;;;;;;;;6340337;22;45271;-77
2023/10/26 18:29:38;;;;;;;;;11.67;9.67;;;;;;;;6312209;22;45304;-78
2023/10/26 18:32:03;;;;;;;;;13.33;12.33;;;;;;;;6311588;22;45546;-78
2023/10/26 18:34:29;;;;;;;;;18.00;15.33;;;;;;;;6340690;22;45435;-78
2023/10/26 18:36:54;;;;;;;;;12.67;8.00;;;;;;;;6340605;22;45365;-77
2023/10/26 18:39:20;;;;;;;;;20.00;12.67;;;;;;;;6312332;22;45545;-79
2023/10/26 18:41:45;;;;;;;;;15.33;11.67;;;;;;;;6340227;22;45380;-77
2023/10/26 18:44:11;;;;;;;;;14.00;10.67;;;;;;;;6311971;22;46441;-76
2023/10/26 18:46:36;;;;;;;;;12.00;9.00;;;;;;;;6339150;22;45291;-75
2023/10/26 18:49:02;;;;;;;;;13.00;9.00;;;;;;;;6340453;22;45254;-76
2023/10/26 18:51:27;;;;;;;;;15.67;7.67;;;;;;;;6340092;22;45336;-77
2023/10/26 18:53:55;;;;;;;;;11.33;8.00;;;;;;;;6311409;22;46817;-75
2023/10/26 18:56:22;;;;;;;;;10.33;6.33;;;;;;;;6340319;22;45215;-76
2023/10/26 18:58:47;;;;;;;;;11.00;7.00;;;;;;;;6340253;22;45253;-76
2023/10/26 19:01:12;;;;;;;;;13.33;12.00;;;;;;;;6311157;22;45138;-77
2023/10/26 19:03:37;;;;;;;;;14.33;12.00;;;;;;;;6340110;22;45157;-76
2023/10/26 19:06:03;;;;;;;;;13.00;10.00;;;;;;;;6339807;22;45126;-77
2023/10/26 19:08:28;;;;;;;;;11.67;7.00;;;;;;;;6340459;22;45355;-76
2023/10/26 19:10:53;;;;;;;;;10.67;9.00;;;;;;;;6340162;22;45404;-77
2023/10/26 19:13:18;;;;;;;;;13.00;9.00;;;;;;;;6340060;22;45412;-76
2023/10/26 19:15:43;;;;;;;;;9.00;8.00;;;;;;;;6340801;22;45174;-76
2023/10/26 19:18:09;;;;;;;;;17.67;14.33;;;;;;;;6340087;22;45381;-76
2023/10/26 19:20:36;;;;;;;;;12.00;8.00;;;;;;;;6340615;22;45799;-76
2023/10/26 19:23:02;;;;;;;;;14.00;11.00;;;;;;;;6339978;22;46629;-76
2023/10/26 19:25:28;;;;;;;;;5.67;5.67;;;;;;;;6339697;22;45283;-75
2023/10/26 19:27:53;;;;;;;;;11.33;9.33;;;;;;;;6340589;22;45180;-75
2023/10/26 19:30:21;;;;;;;;;22.33;17.67;;;;;;;;6340309;22;45222;-75
2023/10/26 19:32:47;;;;;;;;;20.00;18.33;;;;;;;;6339633;22;45323;-75
2023/10/26 19:35:12;;;;;;;;;13.00;13.00;;;;;;;;6340367;22;45203;-76
2023/10/26 19:37:37;;;;;;;;;10.00;8.33;;;;;;;;6340494;22;45165;-75
2023/10/26 19:40:05;;;;;;;;;7.33;6.33;;;;;;;;6340636;22;45093;-76
2023/10/26 19:42:30;;;;;;;;;7.00;7.00;;;;;;;;6339617;22;45406;-75
2023/10/26 19:44:56;;;;;;;;;8.67;6.67;;;;;;;;6339349;22;45184;-76
2023/10/26 19:47:21;;;;;;;;;5.67;5.33;;;;;;;;6339232;22;45398;-76
2023/10/26 19:49:46;;;;;;;;;14.00;13.00;;;;;;;;6340020;22;45377;-75
2023/10/26 19:52:13;;;;;;;;;11.00;9.00;;;;;;;;6339340;22;46422;-76
2023/10/26 19:54:39;;;;;;;;;8.33;8.00;;;;;;;;6339606;22;45180;-77
2023/10/26 19:57:04;;;;;;;;;9.00;9.00;;;;;;;;6340026;22;45112;-76
2023/10/26 19:59:29;;;;;;;;;4.33;4.33;;;;;;;;6340343;22;45141;-78
2023/10/26 20:01:55;;;;;;;;;6.00;6.00;;;;;;;;6339541;22;45404;-75
2023/10/26 20:04:21;;;;;;;;;5.00;5.00;;;;;;;;6340297;22;45503;-77
2023/10/26 20:06:46;;;;;;;;;6.00;5.00;;;;;;;;6340126;22;45209;-77
2023/10/26 20:09:11;;;;;;;;;4.33;4.33;;;;;;;;6341299;22;45498;-75
2023/10/26 20:11:36;;;;;;;;;4.33;4.33;;;;;;;;6311683;22;46467;-77
2023/10/26 20:14:02;;;;;;;;;5.00;4.00;;;;;;;;6340018;22;45143;-75
2023/10/26 20:16:28;;;;;;;;;5.00;5.00;;;;;;;;6339006;22;45226;-74
2023/10/26 20:18:59;;;;;;;;;6.67;6.67;;;;;;;;6311777;22;45395;-76
2023/10/26 20:21:24;;;;;;;;;8.00;6.67;;;;;;;;6311427;22;46753;-77
2023/10/26 20:23:49;;;;;;;;;6.00;6.00;;;;;;;;6340124;22;45231;-77
2023/10/26 20:26:15;;;;;;;;;12.00;11.00;;;;;;;;6339907;22;45202;-74
2023/10/26 20:28:40;;;;;;;;;16.00;13.00;;;;;;;;6339757;22;45430;-76
2023/10/26 20:31:05;;;;;;;;;6.33;6.00;;;;;;;;6339608;22;45342;-74
2023/10/26 20:33:30;;;;;;;;;8.00;7.00;;;;;;;;6339438;22;45196;-75
2023/10/26 20:35:56;;;;;;;;;4.33;4.33;;;;;;;;6340074;22;45149;-74
2023/10/26 20:38:21;;;;;;;;;3.00;3.00;;;;;;;;6310664;22;45727;-75
2023/10/26 20:40:46;;;;;;;;;3.67;3.67;;;;;;;;6340193;22;45331;-76
2023/10/26 20:43:11;;;;;;;;;7.00;7.00;;;;;;;;6311607;22;44652;-74
2023/10/26 20:45:36;;;;;;;;;8.33;8.33;;;;;;;;6339858;22;45215;-76
2023/10/26 20:48:02;;;;;;;;;3.67;3.67;;;;;;;;6337368;22;45260;-76
2023/10/26 20:50:28;;;;;;;;;4.00;2.33;;;;;;;;6339136;22;45293;-76
2023/10/26 20:52:53;;;;;;;;;5.00;3.67;;;;;;;;6339732;22;45189;-76
2023/10/26 20:55:18;;;;;;;;;41.00;33.50;;;;;;;;6339849;22;45544;-76
2023/10/26 20:57:45;;;;;;;;;37.50;33.25;;;;;;;;6339788;22;45211;-77
2023/10/26 21:00:12;;;;;;;;;10.00;8.67;;;;;;;;6339771;22;45626;-77
2023/10/26 21:02:39;;;;;;;;;7.33;5.00;;;;;;;;6339042;22;45346;-76
2023/10/26 21:05:04;;;;;;;;;6.00;5.00;;;;;;;;6339780;22;45230;-77
2023/10/26 21:07:29;;;;;;;;;4.00;4.00;;;;;;;;6339327;22;45351;-76
2023/10/26 21:09:55;;;;;;;;;8.33;7.67;;;;;;;;6339894;22;46317;-76
2023/10/26 21:12:21;;;;;;;;;5.00;3.67;;;;;;;;6311112;22;45787;-76
2023/10/26 21:14:47;;;;;;;;;6.00;5.00;;;;;;;;6338326;22;45227;-79
2023/10/26 21:17:12;;;;;;;;;4.00;3.67;;;;;;;;6310402;22;45922;-79